createdAt,value
2018-09-09T00:00:57.729Z,99.99
2018-09-09T00:01:57.730Z,99.99
2018-09-09T00:02:57.729Z,99.99
2018-09-09T00:03:57.729Z,99.99
2018-09-09T00:04:57.728Z,99.99
2018-09-09T00:05:57.725Z,99.95
2018-09-09T00:06:57.723Z,99.99
2018-09-09T00:07:57.724Z,99.85
2018-09-09T00:08:57.721Z,99.85
2018-09-09T00:09:57.720Z,99.85
2018-09-09T00:10:57.718Z,99.99
2018-09-09T00:11:57.718Z,99.99
2018-09-09T00:12:57.716Z,99.99
2018-09-09T00:13:57.714Z,99.99
2018-09-09T00:14:57.715Z,99.99
2018-09-09T00:15:57.713Z,99.99
2018-09-09T00:16:57.713Z,99.95
2018-09-09T00:17:57.711Z,99.85
2018-09-09T00:18:57.709Z,99.99
2018-09-09T00:19:57.707Z,99.95
2018-09-09T00:20:57.706Z,99.99
2018-09-09T00:21:57.704Z,99.99
2018-09-09T00:22:57.704Z,99.48
2018-09-09T00:23:57.703Z,99.99
2018-09-09T00:24:57.702Z,99.85
2018-09-09T00:25:57.699Z,99.99
2018-09-09T00:26:57.704Z,99.99
2018-09-09T00:27:57.698Z,99.99
2018-09-09T00:28:57.696Z,99.99
2018-09-09T00:29:57.694Z,99.99
2018-09-09T00:30:57.699Z,99.99
2018-09-09T00:31:57.693Z,99.99
2018-09-09T00:32:57.690Z,99.99
2018-09-09T00:33:57.690Z,99.99
2018-09-09T00:34:57.692Z,99.99
2018-09-09T00:35:57.690Z,99.99
2018-09-09T00:36:57.684Z,99.99
2018-09-09T00:37:57.684Z,99.99
2018-09-09T00:38:57.682Z,99.99
2018-09-09T00:39:57.681Z,99.99
2018-09-09T00:40:57.679Z,99.99
2018-09-09T00:41:57.678Z,99.99
2018-09-09T00:42:57.676Z,99.99
2018-09-09T00:43:57.674Z,99.99
2018-09-09T00:44:57.671Z,99.99
2018-09-09T00:45:57.673Z,99.99
2018-09-09T00:46:57.673Z,99.99
2018-09-09T00:47:57.669Z,99.99
2018-09-09T00:48:57.667Z,99.99
2018-09-09T00:49:57.667Z,99.99
2018-09-09T00:50:57.664Z,99.99
2018-09-09T00:51:57.663Z,99.99
2018-09-09T00:52:57.664Z,99.99
2018-09-09T00:53:57.664Z,99.99
2018-09-09T00:54:57.662Z,99.99
2018-09-09T00:55:57.658Z,99.99
2018-09-09T00:56:57.656Z,99.99
2018-09-09T00:57:57.652Z,99.99
2018-09-09T00:58:57.654Z,99.99
2018-09-09T00:59:57.653Z,99.99
2018-09-09T01:00:57.647Z,99.99
2018-09-09T01:01:57.647Z,99.99
2018-09-09T01:02:57.647Z,99.99
2018-09-09T01:03:57.645Z,99.99
2018-09-09T01:04:57.643Z,99.99
2018-09-09T01:05:57.641Z,99.99
2018-09-09T01:06:57.640Z,99.99
2018-09-09T01:07:57.639Z,99.99
2018-09-09T01:08:57.638Z,99.99
2018-09-09T01:09:57.635Z,99.99
2018-09-09T01:10:57.633Z,99.99
2018-09-09T01:11:57.632Z,99.99
2018-09-09T01:12:57.631Z,99.99
2018-09-09T01:13:57.629Z,99.99
2018-09-09T01:14:57.629Z,99.99
2018-09-09T01:15:57.627Z,99.99
2018-09-09T01:16:57.625Z,99.99
2018-09-09T01:17:57.623Z,99.99
2018-09-09T01:18:57.624Z,99.99
2018-09-09T01:19:57.622Z,99.99
2018-09-09T01:20:57.619Z,99.99
2018-09-09T01:21:57.616Z,99.99
2018-09-09T01:22:57.617Z,99.99
2018-09-09T01:23:57.615Z,99.99
2018-09-09T01:24:57.611Z,99.99
2018-09-09T01:25:57.610Z,99.99
2018-09-09T01:26:57.610Z,99.99
2018-09-09T01:27:57.607Z,99.99
2018-09-09T01:28:57.608Z,99.99
2018-09-09T01:29:57.605Z,99.99
2018-09-09T01:30:57.649Z,99.99
2018-09-09T01:31:57.608Z,99.99
2018-09-09T01:32:57.603Z,99.99
2018-09-09T01:33:57.597Z,99.99
2018-09-09T01:34:57.596Z,99.99
2018-09-09T01:35:57.595Z,99.99
2018-09-09T01:36:57.592Z,99.99
2018-09-09T01:37:57.592Z,99.95
2018-09-09T01:38:57.590Z,99.99
2018-09-09T01:39:57.589Z,99.85
2018-09-09T01:40:57.586Z,99.48
2018-09-09T01:41:57.592Z,99.28
2018-09-09T01:42:57.585Z,99.66
2018-09-09T01:43:57.581Z,99.99
2018-09-09T01:44:57.582Z,99.99
2018-09-09T01:45:57.583Z,99.95
2018-09-09T01:46:57.577Z,99.38
2018-09-09T01:47:57.576Z,99.09
2018-09-09T01:48:57.573Z,99.19
2018-09-09T01:49:57.572Z,99.09
2018-09-09T01:50:57.571Z,99.38
2018-09-09T01:51:57.570Z,99.28
2018-09-09T01:52:57.567Z,98.80
2018-09-09T01:53:57.566Z,98.90
2018-09-09T01:54:57.564Z,98.90
2018-09-09T01:55:57.563Z,99.28
2018-09-09T01:56:57.560Z,98.90
2018-09-09T01:57:57.558Z,98.90
2018-09-09T01:58:57.558Z,98.99
2018-09-09T01:59:57.557Z,99.19
2018-09-09T02:00:57.554Z,98.99
2018-09-09T02:01:57.553Z,99.09
2018-09-09T02:02:57.552Z,99.19
2018-09-09T02:03:57.551Z,99.09
2018-09-09T02:04:57.548Z,98.80
2018-09-09T02:05:57.547Z,99.48
2018-09-09T02:06:57.545Z,99.48
2018-09-09T02:07:57.544Z,98.99
2018-09-09T02:08:57.543Z,99.48
2018-09-09T02:09:57.540Z,99.38
2018-09-09T02:10:57.539Z,99.48
2018-09-09T02:11:57.538Z,99.66
2018-09-09T02:12:57.539Z,98.90
2018-09-09T02:13:57.537Z,98.61
2018-09-09T02:14:57.533Z,99.09
2018-09-09T02:15:57.532Z,99.19
2018-09-09T02:16:57.528Z,98.80
2018-09-09T02:17:57.528Z,98.61
2018-09-09T02:18:57.526Z,98.90
2018-09-09T02:19:57.529Z,98.61
2018-09-09T02:20:57.522Z,98.33
2018-09-09T02:21:57.522Z,98.33
2018-09-09T02:22:57.520Z,98.42
2018-09-09T02:23:57.517Z,98.23
2018-09-09T02:24:57.515Z,98.23
2018-09-09T02:25:57.589Z,98.04
2018-09-09T02:26:57.513Z,98.04
2018-09-09T02:27:57.513Z,98.33
2018-09-09T02:28:57.510Z,97.94
2018-09-09T02:29:57.509Z,97.94
2018-09-09T02:30:57.507Z,97.47
2018-09-09T02:31:57.507Z,97.66
2018-09-09T02:32:57.503Z,98.04
2018-09-09T02:33:57.501Z,97.94
2018-09-09T02:34:57.501Z,98.13
2018-09-09T02:35:57.500Z,98.42
2018-09-09T02:36:57.497Z,98.13
2018-09-09T02:37:57.500Z,97.94
2018-09-09T02:38:57.496Z,98.23
2018-09-09T02:39:57.493Z,97.85
2018-09-09T02:40:57.492Z,97.94
2018-09-09T02:41:57.492Z,97.56
2018-09-09T02:42:57.488Z,98.23
2018-09-09T02:43:57.488Z,98.04
2018-09-09T02:44:57.486Z,97.94
2018-09-09T02:45:57.485Z,97.85
2018-09-09T02:46:57.484Z,97.75
2018-09-09T02:47:57.483Z,97.85
2018-09-09T02:48:57.479Z,97.94
2018-09-09T02:49:57.478Z,97.94
2018-09-09T02:50:57.477Z,97.85
2018-09-09T02:51:57.475Z,97.85
2018-09-09T02:52:57.473Z,97.75
2018-09-09T02:53:57.472Z,97.94
2018-09-09T02:54:57.476Z,97.75
2018-09-09T02:55:57.469Z,97.37
2018-09-09T02:56:57.466Z,96.99
2018-09-09T02:57:57.464Z,97.47
2018-09-09T02:58:57.467Z,97.37
2018-09-09T02:59:57.463Z,97.56
2018-09-09T03:00:57.463Z,97.85
2018-09-09T03:01:57.459Z,96.99
2018-09-09T03:02:57.457Z,97.08
2018-09-09T03:03:57.458Z,96.99
2018-09-09T03:04:57.454Z,96.99
2018-09-09T03:05:57.451Z,96.99
2018-09-09T03:06:57.450Z,97.37
2018-09-09T03:07:57.449Z,97.47
2018-09-09T03:08:57.447Z,97.47
2018-09-09T03:09:57.448Z,97.18
2018-09-09T03:10:57.445Z,96.51
2018-09-09T03:11:57.449Z,96.51
2018-09-09T03:12:57.441Z,96.61
2018-09-09T03:13:57.439Z,96.22
2018-09-09T03:14:57.438Z,96.22
2018-09-09T03:15:57.438Z,96.61
2018-09-09T03:16:57.435Z,96.56
2018-09-09T03:17:57.435Z,96.32
2018-09-09T03:18:57.431Z,96.42
2018-09-09T03:19:57.430Z,95.75
2018-09-09T03:20:57.428Z,96.51
2018-09-09T03:21:57.427Z,96.32
2018-09-09T03:22:57.425Z,96.32
2018-09-09T03:23:57.424Z,96.03
2018-09-09T03:24:57.423Z,95.84
2018-09-09T03:25:57.420Z,96.03
2018-09-09T03:26:57.427Z,95.84
2018-09-09T03:27:57.418Z,95.84
2018-09-09T03:28:57.416Z,95.94
2018-09-09T03:29:57.415Z,96.03
2018-09-09T03:30:57.417Z,96.13
2018-09-09T03:31:57.411Z,95.84
2018-09-09T03:32:57.449Z,95.84
2018-09-09T03:33:57.414Z,95.36
2018-09-09T03:34:57.407Z,94.89
2018-09-09T03:35:57.406Z,95.36
2018-09-09T03:36:57.403Z,95.56
2018-09-09T03:37:57.402Z,95.27
2018-09-09T03:38:57.401Z,95.17
2018-09-09T03:39:57.400Z,95.17
2018-09-09T03:40:57.398Z,95.27
2018-09-09T03:41:57.397Z,95.36
2018-09-09T03:42:57.393Z,95.27
2018-09-09T03:43:57.391Z,95.27
2018-09-09T03:44:57.391Z,95.17
2018-09-09T03:45:57.389Z,95.07
2018-09-09T03:46:57.387Z,95.07
2018-09-09T03:47:57.386Z,94.98
2018-09-09T03:48:57.383Z,95.07
2018-09-09T03:49:57.383Z,95.17
2018-09-09T03:50:57.381Z,95.17
2018-09-09T03:51:57.380Z,95.07
2018-09-09T03:52:57.376Z,94.60
2018-09-09T03:53:57.376Z,94.60
2018-09-09T03:54:57.375Z,94.70
2018-09-09T03:55:57.374Z,95.56
2018-09-09T03:56:57.373Z,95.46
2018-09-09T03:57:57.369Z,95.17
2018-09-09T03:58:57.368Z,94.70
2018-09-09T03:59:57.368Z,94.98
2018-09-09T04:00:57.365Z,94.70
2018-09-09T04:01:57.365Z,95.07
2018-09-09T04:02:57.362Z,95.07
2018-09-09T04:03:57.361Z,94.70
2018-09-09T04:04:57.359Z,94.60
2018-09-09T04:05:57.358Z,94.89
2018-09-09T04:06:57.356Z,94.98
2018-09-09T04:07:57.355Z,94.79
2018-09-09T04:08:57.354Z,94.41
2018-09-09T04:09:57.369Z,94.79
2018-09-09T04:10:57.350Z,95.07
2018-09-09T04:11:57.357Z,94.89
2018-09-09T04:12:57.346Z,95.17
2018-09-09T04:13:57.345Z,95.17
2018-09-09T04:14:57.345Z,95.07
2018-09-09T04:15:57.343Z,94.74
2018-09-09T04:16:57.340Z,94.60
2018-09-09T04:17:57.339Z,94.60
2018-09-09T04:18:57.337Z,94.60
2018-09-09T04:19:57.336Z,94.60
2018-09-09T04:20:57.334Z,94.60
2018-09-09T04:21:57.334Z,93.93
2018-09-09T04:22:57.330Z,94.51
2018-09-09T04:23:57.330Z,94.60
2018-09-09T04:24:57.329Z,94.51
2018-09-09T04:25:57.337Z,93.93
2018-09-09T04:26:57.327Z,93.93
2018-09-09T04:27:57.323Z,94.22
2018-09-09T04:28:57.322Z,93.93
2018-09-09T04:29:57.320Z,94.02
2018-09-09T04:30:57.342Z,93.84
2018-09-09T04:31:57.317Z,93.93
2018-09-09T04:32:57.317Z,93.93
2018-09-09T04:33:57.323Z,94.02
2018-09-09T04:34:57.312Z,93.93
2018-09-09T04:35:57.312Z,93.93
2018-09-09T04:36:57.309Z,93.93
2018-09-09T04:37:57.308Z,93.84
2018-09-09T04:38:57.306Z,93.93
2018-09-09T04:39:57.306Z,94.12
2018-09-09T04:40:57.303Z,93.93
2018-09-09T04:41:57.301Z,94.22
2018-09-09T04:42:57.301Z,94.12
2018-09-09T04:43:57.300Z,94.02
2018-09-09T04:44:57.297Z,93.93
2018-09-09T04:45:57.295Z,94.12
2018-09-09T04:46:57.295Z,94.22
2018-09-09T04:47:57.294Z,94.02
2018-09-09T04:48:57.291Z,94.12
2018-09-09T04:49:57.291Z,93.93
2018-09-09T04:50:57.288Z,94.12
2018-09-09T04:51:57.286Z,94.22
2018-09-09T04:52:57.284Z,94.41
2018-09-09T04:53:57.284Z,94.31
2018-09-09T04:54:57.281Z,94.31
2018-09-09T04:55:57.279Z,94.31
2018-09-09T04:56:57.278Z,94.22
2018-09-09T04:57:57.278Z,94.31
2018-09-09T04:58:57.275Z,94.31
2018-09-09T04:59:57.275Z,94.22
2018-09-09T05:00:57.272Z,94.31
2018-09-09T05:01:57.270Z,94.51
2018-09-09T05:02:57.269Z,94.31
2018-09-09T05:03:57.269Z,94.51
2018-09-09T05:04:57.266Z,94.51
2018-09-09T05:05:57.264Z,94.41
2018-09-09T05:06:57.263Z,94.70
2018-09-09T05:07:57.262Z,94.12
2018-09-09T05:08:57.258Z,94.41
2018-09-09T05:09:57.258Z,94.22
2018-09-09T05:10:57.256Z,94.51
2018-09-09T05:11:57.256Z,94.22
2018-09-09T05:12:57.252Z,94.51
2018-09-09T05:13:57.251Z,93.74
2018-09-09T05:14:57.250Z,93.65
2018-09-09T05:15:57.249Z,93.84
2018-09-09T05:16:57.247Z,93.55
2018-09-09T05:17:57.244Z,93.65
2018-09-09T05:18:57.244Z,93.55
2018-09-09T05:19:57.241Z,93.65
2018-09-09T05:20:57.240Z,93.74
2018-09-09T05:21:57.241Z,93.36
2018-09-09T05:22:57.236Z,93.55
2018-09-09T05:23:57.236Z,93.36
2018-09-09T05:24:57.231Z,93.36
2018-09-09T05:25:57.233Z,93.45
2018-09-09T05:26:57.278Z,93.36
2018-09-09T05:27:57.230Z,93.60
2018-09-09T05:28:57.229Z,93.50
2018-09-09T05:29:57.229Z,93.40
2018-09-09T05:30:57.225Z,93.40
2018-09-09T05:31:57.223Z,93.40
2018-09-09T05:32:57.220Z,93.21
2018-09-09T05:33:57.221Z,92.93
2018-09-09T05:34:57.219Z,92.93
2018-09-09T05:35:57.217Z,93.12
2018-09-09T05:36:57.216Z,92.83
2018-09-09T05:37:57.216Z,93.02
2018-09-09T05:38:57.212Z,93.21
2018-09-09T05:39:57.211Z,93.21
2018-09-09T05:40:57.209Z,92.83
2018-09-09T05:41:57.209Z,92.35
2018-09-09T05:42:57.208Z,92.54
2018-09-09T05:43:57.206Z,92.64
2018-09-09T05:44:57.204Z,92.64
2018-09-09T05:45:57.250Z,92.74
2018-09-09T05:46:57.201Z,92.54
2018-09-09T05:47:57.201Z,91.88
2018-09-09T05:48:57.199Z,91.97
2018-09-09T05:49:57.199Z,91.97
2018-09-09T05:50:57.196Z,92.07
2018-09-09T05:51:57.196Z,92.11
2018-09-09T05:52:57.195Z,91.83
2018-09-09T05:53:57.283Z,92.02
2018-09-09T05:54:57.192Z,92.02
2018-09-09T05:55:57.198Z,91.73
2018-09-09T05:56:57.188Z,91.63
2018-09-09T05:57:57.187Z,91.44
2018-09-09T05:58:57.192Z,91.92
2018-09-09T05:59:57.187Z,91.53
2018-09-09T06:00:57.182Z,91.25
2018-09-09T06:01:57.184Z,91.63
2018-09-09T06:02:57.183Z,91.06
2018-09-09T06:03:57.182Z,91.16
2018-09-09T06:04:57.179Z,90.77
2018-09-09T06:05:57.179Z,91.06
2018-09-09T06:06:57.177Z,91.20
2018-09-09T06:07:57.180Z,91.11
2018-09-09T06:08:57.177Z,90.63
2018-09-09T06:09:57.176Z,90.53
2018-09-09T06:10:57.175Z,91.01
2018-09-09T06:11:57.174Z,91.20
2018-09-09T06:12:57.176Z,90.82
2018-09-09T06:13:57.173Z,91.11
2018-09-09T06:14:57.171Z,91.01
2018-09-09T06:15:57.170Z,90.82
2018-09-09T06:16:57.170Z,90.63
2018-09-09T06:17:57.171Z,90.63
2018-09-09T06:18:57.169Z,91.15
2018-09-09T06:19:57.168Z,90.48
2018-09-09T06:20:57.167Z,90.29
2018-09-09T06:21:57.166Z,90.58
2018-09-09T06:22:57.167Z,90.39
2018-09-09T06:23:57.167Z,90.67
2018-09-09T06:24:57.164Z,90.19
2018-09-09T06:25:57.165Z,90.48
2018-09-09T06:26:57.163Z,90.19
2018-09-09T06:27:57.164Z,90.29
2018-09-09T06:28:57.163Z,90.09
2018-09-09T06:29:57.161Z,90.48
2018-09-09T06:30:57.162Z,90.19
2018-09-09T06:31:57.162Z,90.14
2018-09-09T06:32:57.165Z,90.43
2018-09-09T06:33:57.208Z,90.23
2018-09-09T06:34:57.161Z,90.33
2018-09-09T06:35:57.160Z,90.05
2018-09-09T06:36:57.160Z,90.23
2018-09-09T06:37:57.159Z,90.14
2018-09-09T06:38:57.186Z,90.05
2018-09-09T06:39:57.159Z,90.05
2018-09-09T06:40:57.159Z,90.33
2018-09-09T06:41:57.159Z,90.23
2018-09-09T06:42:57.159Z,90.23
2018-09-09T06:43:57.158Z,89.57
2018-09-09T06:44:57.160Z,90.14
2018-09-09T06:45:57.159Z,89.51
2018-09-09T06:46:57.159Z,90.28
2018-09-09T06:47:57.967Z,90.19
2018-09-09T06:48:57.159Z,89.32
2018-09-09T06:49:57.157Z,89.32
2018-09-09T06:50:57.160Z,89.61
2018-09-09T06:51:57.160Z,89.13
2018-09-09T06:52:57.159Z,88.75
2018-09-09T06:53:57.159Z,89.23
2018-09-09T06:54:57.186Z,89.13
2018-09-09T06:55:57.160Z,88.60
2018-09-09T06:56:57.160Z,88.98
2018-09-09T06:57:57.161Z,88.79
2018-09-09T06:58:57.161Z,88.70
2018-09-09T06:59:57.161Z,88.41
2018-09-09T07:00:57.162Z,88.70
2018-09-09T07:01:57.161Z,88.51
2018-09-09T07:02:57.162Z,88.79
2018-09-09T07:03:57.165Z,88.02
2018-09-09T07:04:57.164Z,87.93
2018-09-09T07:05:57.164Z,89.08
2018-09-09T07:06:57.164Z,88.22
2018-09-09T07:07:57.166Z,87.78
2018-09-09T07:08:57.166Z,88.35
2018-09-09T07:09:57.167Z,87.88
2018-09-09T07:10:57.270Z,87.68
2018-09-09T07:11:57.268Z,87.68
2018-09-09T07:12:57.171Z,87.21
2018-09-09T07:13:57.169Z,87.21
2018-09-09T07:14:57.171Z,86.44
2018-09-09T07:15:57.176Z,86.63
2018-09-09T07:16:57.185Z,86.92
2018-09-09T07:17:57.176Z,87.59
2018-09-09T07:18:57.221Z,87.11
2018-09-09T07:19:57.178Z,86.82
2018-09-09T07:20:57.178Z,86.82
2018-09-09T07:21:57.179Z,86.92
2018-09-09T07:22:57.181Z,86.44
2018-09-09T07:23:57.181Z,86.72
2018-09-09T07:24:57.182Z,86.34
2018-09-09T07:25:57.183Z,86.34
2018-09-09T07:26:57.184Z,86.92
2018-09-09T07:27:57.185Z,86.92
2018-09-09T07:28:57.185Z,86.72
2018-09-09T07:29:57.185Z,86.05
2018-09-09T07:30:57.189Z,86.44
2018-09-09T07:31:57.189Z,86.82
2018-09-09T07:32:57.192Z,86.05
2018-09-09T07:33:57.190Z,86.82
2018-09-09T07:34:57.193Z,86.34
2018-09-09T07:35:57.192Z,86.25
2018-09-09T07:36:57.192Z,86.25
2018-09-09T07:37:57.192Z,86.15
2018-09-09T07:38:57.195Z,85.96
2018-09-09T07:39:57.195Z,85.86
2018-09-09T07:40:57.196Z,85.58
2018-09-09T07:41:57.196Z,85.96
2018-09-09T07:42:57.198Z,86.15
2018-09-09T07:43:57.199Z,85.58
2018-09-09T07:44:57.199Z,85.28
2018-09-09T07:45:57.199Z,85.77
2018-09-09T07:46:57.200Z,85.48
2018-09-09T07:47:57.225Z,85.48
2018-09-09T07:48:57.202Z,85.58
2018-09-09T07:49:57.204Z,85.28
2018-09-09T07:50:57.203Z,85.48
2018-09-09T07:51:57.204Z,85.10
2018-09-09T07:52:57.204Z,85.52
2018-09-09T07:53:57.204Z,85.52
2018-09-09T07:54:57.206Z,85.42
2018-09-09T07:55:57.208Z,84.95
2018-09-09T07:56:57.208Z,85.24
2018-09-09T07:57:57.209Z,84.66
2018-09-09T07:58:57.213Z,84.66
2018-09-09T07:59:57.212Z,84.75
2018-09-09T08:00:57.210Z,84.66
2018-09-09T08:01:57.214Z,84.56
2018-09-09T08:02:57.216Z,84.27
2018-09-09T08:03:57.214Z,84.66
2018-09-09T08:04:57.216Z,84.27
2018-09-09T08:05:57.217Z,84.75
2018-09-09T08:06:57.218Z,84.95
2018-09-09T08:07:57.219Z,84.56
2018-09-09T08:08:57.219Z,84.18
2018-09-09T08:09:57.221Z,84.75
2018-09-09T08:10:57.223Z,84.95
2018-09-09T08:11:57.259Z,84.99
2018-09-09T08:12:57.224Z,84.60
2018-09-09T08:13:57.227Z,83.93
2018-09-09T08:14:57.233Z,84.31
2018-09-09T08:15:57.228Z,83.40
2018-09-09T08:16:57.229Z,83.49
2018-09-09T08:17:57.232Z,83.11
2018-09-09T08:18:57.233Z,83.01
2018-09-09T08:19:57.237Z,83.01
2018-09-09T08:20:57.236Z,82.34
2018-09-09T08:21:57.238Z,82.19
2018-09-09T08:22:57.239Z,83.20
2018-09-09T08:23:57.242Z,83.06
2018-09-09T08:24:57.243Z,82.57
2018-09-09T08:25:57.244Z,82.38
2018-09-09T08:26:57.253Z,82.19
2018-09-09T08:27:57.249Z,82.42
2018-09-09T08:28:57.251Z,82.52
2018-09-09T08:29:57.252Z,82.38
2018-09-09T08:30:57.255Z,81.99
2018-09-09T08:31:57.257Z,81.94
2018-09-09T08:32:57.261Z,82.48
2018-09-09T08:33:57.262Z,82.76
2018-09-09T08:34:57.265Z,82.29
2018-09-09T08:35:57.267Z,82.19
2018-09-09T08:36:57.270Z,82.38
2018-09-09T08:37:57.277Z,82.57
2018-09-09T08:38:57.275Z,82.57
2018-09-09T08:39:57.278Z,82.19
2018-09-09T08:40:57.282Z,81.65
2018-09-09T08:41:57.284Z,81.46
2018-09-09T08:42:57.286Z,81.40
2018-09-09T08:43:57.292Z,80.79
2018-09-09T08:44:57.293Z,80.60
2018-09-09T08:45:57.295Z,81.60
2018-09-09T08:46:57.299Z,81.12
2018-09-09T08:47:57.301Z,80.69
2018-09-09T08:48:57.304Z,80.73
2018-09-09T08:49:57.306Z,80.50
2018-09-09T08:50:57.312Z,80.73
2018-09-09T08:51:57.409Z,80.60
2018-09-09T08:52:57.317Z,80.63
2018-09-09T08:53:57.321Z,80.69
2018-09-09T08:54:57.324Z,80.88
2018-09-09T08:55:57.329Z,81.07
2018-09-09T08:56:57.330Z,81.27
2018-09-09T08:57:57.334Z,80.88
2018-09-09T08:58:57.341Z,81.40
2018-09-09T08:59:57.343Z,81.30
2018-09-09T09:00:57.346Z,81.12
2018-09-09T09:01:57.349Z,80.92
2018-09-09T09:02:57.352Z,80.77
2018-09-09T09:03:57.357Z,80.10
2018-09-09T09:04:57.359Z,79.58
2018-09-09T09:05:57.363Z,79.61
2018-09-09T09:06:57.367Z,79.33
2018-09-09T09:07:57.419Z,78.27
2018-09-09T09:08:57.375Z,77.75
2018-09-09T09:09:57.380Z,74.95
2018-09-09T09:10:57.429Z,75.42
2018-09-09T09:11:57.389Z,77.34
2018-09-09T09:12:57.391Z,77.15
2018-09-09T09:13:57.396Z,78.15
2018-09-09T09:14:57.401Z,77.96
2018-09-09T09:15:57.407Z,77.67
2018-09-09T09:16:57.410Z,77.48
2018-09-09T09:17:57.415Z,76.45
2018-09-09T09:18:57.422Z,75.68
2018-09-09T09:19:57.425Z,74.27
2018-09-09T09:20:57.431Z,74.47
2018-09-09T09:21:57.437Z,73.79
2018-09-09T09:22:57.440Z,74.27
2018-09-09T09:23:57.447Z,73.95
2018-09-09T09:24:57.452Z,74.24
2018-09-09T09:25:57.457Z,75.01
2018-09-09T09:26:57.464Z,75.24
2018-09-09T09:27:57.469Z,75.68
2018-09-09T09:28:57.474Z,75.97
2018-09-09T09:29:57.481Z,76.55
2018-09-09T09:30:57.486Z,77.48
2018-09-09T09:31:57.494Z,77.58
2018-09-09T09:32:57.499Z,77.03
2018-09-09T09:33:57.504Z,76.65
2018-09-09T09:34:57.510Z,75.30
2018-09-09T09:35:57.517Z,74.66
2018-09-09T09:36:57.522Z,74.79
2018-09-09T09:37:57.528Z,73.44
2018-09-09T09:38:57.534Z,72.48
2018-09-09T09:39:57.539Z,72.77
2018-09-09T09:40:57.546Z,73.38
2018-09-09T09:41:57.551Z,71.48
2018-09-09T09:42:57.559Z,70.97
2018-09-09T09:43:57.565Z,71.74
2018-09-09T09:44:57.571Z,73.25
2018-09-09T09:45:57.577Z,72.96
2018-09-09T09:46:57.585Z,72.99
2018-09-09T09:47:57.592Z,73.75
2018-09-09T09:48:57.598Z,74.33
2018-09-09T09:49:57.603Z,74.05
2018-09-09T09:50:57.610Z,74.14
2018-09-09T09:51:57.618Z,75.10
2018-09-09T09:52:57.624Z,75.30
2018-09-09T09:53:57.632Z,75.01
2018-09-09T09:54:57.662Z,73.14
2018-09-09T09:55:57.642Z,74.20
2018-09-09T09:56:57.650Z,74.82
2018-09-09T09:57:57.655Z,74.18
2018-09-09T09:58:57.662Z,74.18
2018-09-09T09:59:57.669Z,72.15
2018-09-09T10:00:57.674Z,72.25
2018-09-09T10:01:57.680Z,71.42
2018-09-09T10:02:57.687Z,70.84
2018-09-09T10:03:57.694Z,68.40
2018-09-09T10:04:57.699Z,66.33
2018-09-09T10:05:57.705Z,64.89
2018-09-09T10:06:57.713Z,64.79
2018-09-09T10:07:57.719Z,63.24
2018-09-09T10:08:57.747Z,62.88
2018-09-09T10:09:57.733Z,61.30
2018-09-09T10:10:57.742Z,60.98
2018-09-09T10:11:57.748Z,61.72
2018-09-09T10:12:57.756Z,61.18
2018-09-09T10:13:57.762Z,61.18
2018-09-09T10:14:57.777Z,59.91
2018-09-09T10:15:57.782Z,59.69
2018-09-09T10:16:57.789Z,58.91
2018-09-09T10:17:57.795Z,58.06
2018-09-09T10:18:57.804Z,58.56
2018-09-09T10:19:57.813Z,61.11
2018-09-09T10:20:57.820Z,62.85
2018-09-09T10:21:57.830Z,62.59
2018-09-09T10:22:57.842Z,61.15
2018-09-09T10:23:57.849Z,61.05
2018-09-09T10:24:57.857Z,60.88
2018-09-09T10:25:57.866Z,62.79
2018-09-09T10:26:57.880Z,63.60
2018-09-09T10:27:57.886Z,65.11
2018-09-09T10:28:57.895Z,66.59
2018-09-09T10:29:57.940Z,68.13
2018-09-09T10:30:57.914Z,68.81
2018-09-09T10:31:57.923Z,68.71
2018-09-09T10:32:57.932Z,69.04
2018-09-09T10:33:57.940Z,66.24
2018-09-09T10:34:57.951Z,65.59
2018-09-09T10:35:57.962Z,66.53
2018-09-09T10:36:57.966Z,67.20
2018-09-09T10:37:57.975Z,67.30
2018-09-09T10:38:57.986Z,67.11
2018-09-09T10:39:57.992Z,67.33
2018-09-09T10:40:58.044Z,68.30
2018-09-09T10:41:58.013Z,68.98
2018-09-09T10:42:58.017Z,67.30
2018-09-09T10:43:58.026Z,67.85
2018-09-09T10:44:58.032Z,69.29
2018-09-09T10:45:58.073Z,68.62
2018-09-09T10:46:58.058Z,70.00
2018-09-09T10:47:58.058Z,68.75
2018-09-09T10:48:58.066Z,69.78
2018-09-09T10:49:58.072Z,71.61
2018-09-09T10:50:58.082Z,68.71
2018-09-09T10:51:58.088Z,69.78
2018-09-09T10:52:58.094Z,68.91
2018-09-09T10:53:58.101Z,69.07
2018-09-09T10:54:58.109Z,70.57
2018-09-09T10:55:58.121Z,71.73
2018-09-09T10:56:58.123Z,71.06
2018-09-09T10:57:58.130Z,72.41
2018-09-09T10:58:58.137Z,71.64
2018-09-09T10:59:58.144Z,70.96
2018-09-09T11:00:58.149Z,71.25
2018-09-09T11:01:58.155Z,71.12
2018-09-09T11:02:58.169Z,71.06
2018-09-09T11:03:58.170Z,69.61
2018-09-09T11:04:58.177Z,71.19
2018-09-09T11:05:58.181Z,67.71
2018-09-09T11:06:58.191Z,68.49
2018-09-09T11:07:58.192Z,68.29
2018-09-09T11:08:58.198Z,68.68
2018-09-09T11:09:58.206Z,68.65
2018-09-09T11:10:58.209Z,69.16
2018-09-09T11:11:58.217Z,69.35
2018-09-09T11:12:58.288Z,68.59
2018-09-09T11:13:58.230Z,69.26
2018-09-09T11:14:58.233Z,69.07
2018-09-09T11:15:58.242Z,68.68
2018-09-09T11:16:58.243Z,68.91
2018-09-09T11:17:58.253Z,67.17
2018-09-09T11:18:58.333Z,66.30
2018-09-09T11:19:58.261Z,66.30
2018-09-09T11:20:58.266Z,65.53
2018-09-09T11:21:58.274Z,65.91
2018-09-09T11:22:58.279Z,65.56
2018-09-09T11:23:58.304Z,66.20
2018-09-09T11:24:58.288Z,66.05
2018-09-09T11:25:58.292Z,65.14
2018-09-09T11:26:58.300Z,64.86
2018-09-09T11:27:58.306Z,65.37
2018-09-09T11:28:58.309Z,67.11
2018-09-09T11:29:58.386Z,66.05
2018-09-09T11:30:58.323Z,65.17
2018-09-09T11:31:58.327Z,66.11
2018-09-09T11:32:58.331Z,66.43
2018-09-09T11:33:58.338Z,65.14
2018-09-09T11:34:58.343Z,64.95
2018-09-09T11:35:58.353Z,65.91
2018-09-09T11:36:58.353Z,65.53
2018-09-09T11:37:58.359Z,66.11
2018-09-09T11:38:58.364Z,66.43
2018-09-09T11:39:58.371Z,66.33
2018-09-09T11:40:58.376Z,66.11
2018-09-09T11:41:58.380Z,67.04
2018-09-09T11:42:58.387Z,68.10
2018-09-09T11:43:58.392Z,68.23
2018-09-09T11:44:58.397Z,68.33
2018-09-09T11:45:58.403Z,67.75
2018-09-09T11:46:58.408Z,67.17
2018-09-09T11:47:58.412Z,67.65
2018-09-09T11:48:58.416Z,66.69
2018-09-09T11:49:58.421Z,67.17
2018-09-09T11:50:58.428Z,68.43
2018-09-09T11:51:58.433Z,69.10
2018-09-09T11:52:58.465Z,68.17
2018-09-09T11:53:58.442Z,67.49
2018-09-09T11:54:58.446Z,66.40
2018-09-09T11:55:58.456Z,66.49
2018-09-09T11:56:58.456Z,66.20
2018-09-09T11:57:58.461Z,67.55
2018-09-09T11:58:58.466Z,67.55
2018-09-09T11:59:58.472Z,66.97
2018-09-09T12:00:58.476Z,66.78
2018-09-09T12:01:58.513Z,67.27
2018-09-09T12:02:58.486Z,67.55
2018-09-09T12:03:58.493Z,67.36
2018-09-09T12:04:58.492Z,67.46
2018-09-09T12:05:58.500Z,67.11
2018-09-09T12:06:58.503Z,67.30
2018-09-09T12:07:58.507Z,67.97
2018-09-09T12:08:58.511Z,67.88
2018-09-09T12:09:58.515Z,68.04
2018-09-09T12:10:58.520Z,68.71
2018-09-09T12:11:58.524Z,69.68
2018-09-09T12:12:58.528Z,68.71
2018-09-09T12:13:58.533Z,68.33
2018-09-09T12:14:58.538Z,67.59
2018-09-09T12:15:58.547Z,67.40
2018-09-09T12:16:58.548Z,66.14
2018-09-09T12:17:58.549Z,66.14
2018-09-09T12:18:58.555Z,66.14
2018-09-09T12:19:58.559Z,66.05
2018-09-09T12:20:58.560Z,65.56
2018-09-09T12:21:58.567Z,66.33
2018-09-09T12:22:58.575Z,66.05
2018-09-09T12:23:58.575Z,65.75
2018-09-09T12:24:58.578Z,65.75
2018-09-09T12:25:58.586Z,66.53
2018-09-09T12:26:58.587Z,66.17
2018-09-09T12:27:58.592Z,64.43
2018-09-09T12:28:58.595Z,64.53
2018-09-09T12:29:58.598Z,64.82
2018-09-09T12:30:58.604Z,64.92
2018-09-09T12:31:58.612Z,66.08
2018-09-09T12:32:58.611Z,65.78
2018-09-09T12:33:58.617Z,67.24
2018-09-09T12:34:58.622Z,64.82
2018-09-09T12:35:58.624Z,63.47
2018-09-09T12:36:58.641Z,62.98
2018-09-09T12:37:58.634Z,62.60
2018-09-09T12:38:58.637Z,63.28
2018-09-09T12:39:58.643Z,63.37
2018-09-09T12:40:58.647Z,63.89
2018-09-09T12:41:58.650Z,64.56
2018-09-09T12:42:58.657Z,64.18
2018-09-09T12:43:58.661Z,65.05
2018-09-09T12:44:58.664Z,64.76
2018-09-09T12:45:58.668Z,64.18
2018-09-09T12:46:58.672Z,63.40
2018-09-09T12:47:58.678Z,63.37
2018-09-09T12:48:58.681Z,63.66
2018-09-09T12:49:58.687Z,64.53
2018-09-09T12:50:58.691Z,64.43
2018-09-09T12:51:58.695Z,62.98
2018-09-09T12:52:58.697Z,65.01